sensor_id;sensor_type;location;lat;lon;timestamp;P1;durP1;ratioP1;P2;durP2;ratioP2
46036;SDS011;31769;49.304;8.428;2024-02-23T07:04:03;4.07;;;0.70;;
46036;SDS011;31769;49.304;8.428;2024-02-23T07:07:04;4.78;;;0.50;;
46036;SDS011;31769;49.304;8.428;2024-02-23T07:10:07;4.20;;;0.47;;
46036;SDS011;31769;49.304;8.428;2024-02-23T07:13:09;5.53;;;0.38;;
46036;SDS011;31769;49.304;8.428;2024-02-23T07:16:09;3.22;;;0.30;;
46036;SDS011;31769;49.304;8.428;2024-02-23T07:19:10;4.82;;;0.60;;
46036;SDS011;31769;49.304;8.428;2024-02-23T07:22:12;3.85;;;0.25;;
46036;SDS011;31769;49.304;8.428;2024-02-23T07:25:19;4.60;;;0.65;;
46036;SDS011;31769;49.304;8.428;2024-02-23T07:28:20;2.38;;;0.57;;
46036;SDS011;31769;49.304;8.428;2024-02-23T07:31:23;10.82;;;1.10;;
46036;SDS011;31769;49.304;8.428;2024-02-23T07:34:23;5.28;;;0.50;;
46036;SDS011;31769;49.304;8.428;2024-02-23T07:37:25;3.88;;;0.75;;
46036;SDS011;31769;49.304;8.428;2024-02-23T07:40:27;4.43;;;0.70;;
46036;SDS011;31769;49.304;8.428;2024-02-23T07:43:28;4.20;;;0.85;;
46036;SDS011;31769;49.304;8.428;2024-02-23T07:46:29;5.60;;;0.47;;
46036;SDS011;31769;49.304;8.428;2024-02-23T07:49:29;3.60;;;0.63;;
46036;SDS011;31769;49.304;8.428;2024-02-23T07:52:30;2.95;;;0.65;;
46036;SDS011;31769;49.304;8.428;2024-02-23T07:55:31;2.90;;;0.55;;
46036;SDS011;31769;49.304;8.428;2024-02-23T07:58:32;3.75;;;0.57;;
46036;SDS011;31769;49.304;8.428;2024-02-23T08:01:33;3.40;;;0.40;;
46036;SDS011;31769;49.304;8.428;2024-02-23T08:04:34;4.68;;;0.50;;
46036;SDS011;31769;49.304;8.428;2024-02-23T08:07:35;4.80;;;0.77;;
46036;SDS011;31769;49.304;8.428;2024-02-23T08:10:36;6.25;;;1.10;;
46036;SDS011;31769;49.304;8.428;2024-02-23T08:13:36;2.80;;;0.82;;
46036;SDS011;31769;49.304;8.428;2024-02-23T08:16:37;7.75;;;0.68;;
46036;SDS011;31769;49.304;8.428;2024-02-23T08:19:37;4.72;;;0.70;;
46036;SDS011;31769;49.304;8.428;2024-02-23T08:22:38;6.57;;;0.70;;
46036;SDS011;31769;49.304;8.428;2024-02-23T08:25:39;6.80;;;0.35;;
46036;SDS011;31769;49.304;8.428;2024-02-23T08:28:39;5.18;;;0.73;;
46036;SDS011;31769;49.304;8.428;2024-02-23T08:31:40;5.07;;;0.73;;
46036;SDS011;31769;49.304;8.428;2024-02-23T08:34:41;4.53;;;0.70;;
46036;SDS011;31769;49.304;8.428;2024-02-23T08:37:41;4.63;;;0.57;;
46036;SDS011;31769;49.304;8.428;2024-02-23T08:40:42;4.10;;;0.73;;
46036;SDS011;31769;49.304;8.428;2024-02-23T08:43:45;3.42;;;0.60;;
46036;SDS011;31769;49.304;8.428;2024-02-23T08:46:46;3.38;;;0.30;;
46036;SDS011;31769;49.304;8.428;2024-02-23T08:49:48;5.72;;;0.80;;
46036;SDS011;31769;49.304;8.428;2024-02-23T08:52:49;5.07;;;0.60;;
46036;SDS011;31769;49.304;8.428;2024-02-23T08:55:49;5.15;;;0.35;;
46036;SDS011;31769;49.304;8.428;2024-02-23T08:58:50;5.70;;;1.17;;
46036;SDS011;31769;49.304;8.428;2024-02-23T09:01:50;6.40;;;0.88;;
46036;SDS011;31769;49.304;8.428;2024-02-23T09:04:51;7.07;;;0.75;;
46036;SDS011;31769;49.304;8.428;2024-02-23T09:07:52;4.68;;;0.57;;
46036;SDS011;31769;49.304;8.428;2024-02-23T09:10:53;6.10;;;0.90;;
46036;SDS011;31769;49.304;8.428;2024-02-23T09:13:54;2.47;;;0.43;;
46036;SDS011;31769;49.304;8.428;2024-02-23T09:16:54;8.02;;;0.60;;
46036;SDS011;31769;49.304;8.428;2024-02-23T09:19:55;5.85;;;0.50;;
46036;SDS011;31769;49.304;8.428;2024-02-23T09:22:56;7.40;;;0.60;;
46036;SDS011;31769;49.304;8.428;2024-02-23T09:25:57;1.98;;;0.35;;
46036;SDS011;31769;49.304;8.428;2024-02-23T09:28:57;5.88;;;0.90;;
46036;SDS011;31769;49.304;8.428;2024-02-23T09:31:58;4.97;;;0.28;;
46036;SDS011;31769;49.304;8.428;2024-02-23T09:34:59;5.20;;;1.13;;
46036;SDS011;31769;49.304;8.428;2024-02-23T09:37:59;5.65;;;0.50;;
46036;SDS011;31769;49.304;8.428;2024-02-23T09:41:00;3.55;;;0.85;;
46036;SDS011;31769;49.304;8.428;2024-02-23T09:44:01;2.60;;;0.57;;
46036;SDS011;31769;49.304;8.428;2024-02-23T09:47:03;9.90;;;0.77;;
46036;SDS011;31769;49.304;8.428;2024-02-23T09:50:08;6.70;;;1.02;;
46036;SDS011;31769;49.304;8.428;2024-02-23T09:53:09;5.25;;;1.08;;
46036;SDS011;31769;49.304;8.428;2024-02-23T09:56:13;6.93;;;0.82;;
46036;SDS011;31769;49.304;8.428;2024-02-23T09:59:17;7.43;;;0.85;;
46036;SDS011;31769;49.304;8.428;2024-02-23T10:02:18;7.22;;;1.00;;
46036;SDS011;31769;49.304;8.428;2024-02-23T10:05:19;7.43;;;0.65;;
46036;SDS011;31769;49.304;8.428;2024-02-23T10:08:23;8.27;;;0.85;;
46036;SDS011;31769;49.304;8.428;2024-02-23T10:11:24;7.90;;;1.40;;
46036;SDS011;31769;49.304;8.428;2024-02-23T10:14:25;7.85;;;1.10;;
46036;SDS011;31769;49.304;8.428;2024-02-23T10:17:26;6.72;;;1.35;;
46036;SDS011;31769;49.304;8.428;2024-02-23T10:20:27;5.97;;;0.68;;
46036;SDS011;31769;49.304;8.428;2024-02-23T10:23:28;5.47;;;1.00;;
46036;SDS011;31769;49.304;8.428;2024-02-23T10:26:29;7.80;;;0.70;;
46036;SDS011;31769;49.304;8.428;2024-02-23T10:29:29;5.20;;;0.88;;
46036;SDS011;31769;49.304;8.428;2024-02-23T10:32:30;6.55;;;1.00;;
46036;SDS011;31769;49.304;8.428;2024-02-23T10:35:31;7.00;;;0.80;;
46036;SDS011;31769;49.304;8.428;2024-02-23T10:38:35;3.95;;;0.43;;
46036;SDS011;31769;49.304;8.428;2024-02-23T10:41:43;8.13;;;1.33;;
46036;SDS011;31769;49.304;8.428;2024-02-23T10:45:00;5.43;;;0.88;;
46036;SDS011;31769;49.304;8.428;2024-02-23T10:48:02;7.18;;;1.00;;
46036;SDS011;31769;49.304;8.428;2024-02-23T10:51:03;6.88;;;1.00;;
46036;SDS011;31769;49.304;8.428;2024-02-23T10:54:06;7.63;;;1.00;;
46036;SDS011;31769;49.304;8.428;2024-02-23T10:57:07;6.43;;;0.90;;
46036;SDS011;31769;49.304;8.428;2024-02-23T11:00:08;8.32;;;0.93;;
46036;SDS011;31769;49.304;8.428;2024-02-23T11:03:10;6.93;;;1.35;;
46036;SDS011;31769;49.304;8.428;2024-02-23T11:06:11;7.32;;;1.30;;
46036;SDS011;31769;49.304;8.428;2024-02-23T11:09:12;5.53;;;0.82;;
46036;SDS011;31769;49.304;8.428;2024-02-23T11:12:21;5.45;;;0.95;;
46036;SDS011;31769;49.304;8.428;2024-02-23T11:15:29;6.10;;;1.05;;
46036;SDS011;31769;49.304;8.428;2024-02-23T11:18:37;5.68;;;0.75;;
46036;SDS011;31769;49.304;8.428;2024-02-23T11:21:39;9.13;;;0.88;;
46036;SDS011;31769;49.304;8.428;2024-02-23T11:24:43;6.82;;;0.52;;
46036;SDS011;31769;49.304;8.428;2024-02-23T11:27:48;6.55;;;0.93;;
46036;SDS011;31769;49.304;8.428;2024-02-23T11:30:50;5.78;;;0.80;;
46036;SDS011;31769;49.304;8.428;2024-02-23T11:33:52;7.93;;;0.85;;
46036;SDS011;31769;49.304;8.428;2024-02-23T11:36:54;4.55;;;0.73;;
46036;SDS011;31769;49.304;8.428;2024-02-23T11:39:56;6.20;;;0.68;;
46036;SDS011;31769;49.304;8.428;2024-02-23T11:42:57;6.53;;;0.70;;
46036;SDS011;31769;49.304;8.428;2024-02-23T11:46:01;7.25;;;0.70;;
46036;SDS011;31769;49.304;8.428;2024-02-23T11:49:02;5.25;;;0.90;;
46036;SDS011;31769;49.304;8.428;2024-02-23T11:52:03;8.80;;;0.93;;
46036;SDS011;31769;49.304;8.428;2024-02-23T11:55:04;3.53;;;0.80;;
46036;SDS011;31769;49.304;8.428;2024-02-23T11:58:06;6.10;;;0.80;;
46036;SDS011;31769;49.304;8.428;2024-02-23T12:01:07;4.03;;;0.75;;
46036;SDS011;31769;49.304;8.428;2024-02-23T12:04:07;5.32;;;0.75;;
46036;SDS011;31769;49.304;8.428;2024-02-23T12:07:08;3.55;;;0.38;;
46036;SDS011;31769;49.304;8.428;2024-02-23T12:10:09;3.78;;;0.70;;
46036;SDS011;31769;49.304;8.428;2024-02-23T12:13:11;2.90;;;0.60;;
46036;SDS011;31769;49.304;8.428;2024-02-23T12:16:12;6.78;;;0.90;;
46036;SDS011;31769;49.304;8.428;2024-02-23T12:19:14;8.00;;;0.82;;
46036;SDS011;31769;49.304;8.428;2024-02-23T12:22:15;3.15;;;0.82;;
46036;SDS011;31769;49.304;8.428;2024-02-23T12:25:16;5.03;;;0.80;;
46036;SDS011;31769;49.304;8.428;2024-02-23T12:28:20;4.43;;;0.50;;
46036;SDS011;31769;49.304;8.428;2024-02-23T12:31:24;3.50;;;0.65;;
46036;SDS011;31769;49.304;8.428;2024-02-23T12:34:26;6.25;;;2.60;;
46036;SDS011;31769;49.304;8.428;2024-02-23T12:37:27;5.03;;;0.70;;
46036;SDS011;31769;49.304;8.428;2024-02-23T12:40:28;2.80;;;0.70;;
46036;SDS011;31769;49.304;8.428;2024-02-23T12:43:29;4.32;;;0.43;;
46036;SDS011;31769;49.304;8.428;2024-02-23T12:46:30;1.23;;;0.70;;
46036;SDS011;31769;49.304;8.428;2024-02-23T12:49:30;5.93;;;1.10;;
46036;SDS011;31769;49.304;8.428;2024-02-23T12:52:31;6.70;;;0.75;;
46036;SDS011;31769;49.304;8.428;2024-02-23T12:55:32;5.55;;;0.93;;
46036;SDS011;31769;49.304;8.428;2024-02-23T12:58:33;6.63;;;1.33;;
46036;SDS011;31769;49.304;8.428;2024-02-23T13:01:43;3.53;;;0.90;;
46036;SDS011;31769;49.304;8.428;2024-02-23T13:04:44;4.20;;;0.93;;
46036;SDS011;31769;49.304;8.428;2024-02-23T13:07:48;5.93;;;0.93;;
46036;SDS011;31769;49.304;8.428;2024-02-23T13:10:50;5.32;;;0.90;;
46036;SDS011;31769;49.304;8.428;2024-02-23T13:13:51;4.93;;;1.30;;
46036;SDS011;31769;49.304;8.428;2024-02-23T13:16:51;4.65;;;0.95;;
46036;SDS011;31769;49.304;8.428;2024-02-23T13:19:52;3.20;;;0.75;;
46036;SDS011;31769;49.304;8.428;2024-02-23T13:22:53;2.88;;;0.60;;
46036;SDS011;31769;49.304;8.428;2024-02-23T13:25:53;3.15;;;1.00;;
46036;SDS011;31769;49.304;8.428;2024-02-23T13:28:54;3.22;;;0.77;;
46036;SDS011;31769;49.304;8.428;2024-02-23T13:31:55;1.80;;;0.65;;
46036;SDS011;31769;49.304;8.428;2024-02-23T13:34:55;4.22;;;1.08;;
46036;SDS011;31769;49.304;8.428;2024-02-23T13:37:56;7.13;;;1.50;;
46036;SDS011;31769;49.304;8.428;2024-02-23T13:40:57;8.25;;;1.35;;
46036;SDS011;31769;49.304;8.428;2024-02-23T13:43:58;4.97;;;1.00;;
46036;SDS011;31769;49.304;8.428;2024-02-23T13:46:59;6.55;;;1.10;;
46036;SDS011;31769;49.304;8.428;2024-02-23T13:49:59;6.20;;;1.23;;
46036;SDS011;31769;49.304;8.428;2024-02-23T13:53:00;6.90;;;1.33;;
46036;SDS011;31769;49.304;8.428;2024-02-23T13:56:01;3.88;;;1.05;;
46036;SDS011;31769;49.304;8.428;2024-02-23T13:59:02;7.25;;;3.92;;
46036;SDS011;31769;49.304;8.428;2024-02-23T14:02:04;4.85;;;1.40;;
46036;SDS011;31769;49.304;8.428;2024-02-23T14:05:05;10.10;;;2.53;;
46036;SDS011;31769;49.304;8.428;2024-02-23T14:08:06;10.43;;;3.47;;
46036;SDS011;31769;49.304;8.428;2024-02-23T14:11:08;9.50;;;1.50;;
46036;SDS011;31769;49.304;8.428;2024-02-23T14:14:09;8.23;;;2.47;;
46036;SDS011;31769;49.304;8.428;2024-02-23T14:17:10;6.90;;;2.35;;
46036;SDS011;31769;49.304;8.428;2024-02-23T14:20:11;6.80;;;4.28;;
46036;SDS011;31769;49.304;8.428;2024-02-23T14:23:12;5.72;;;1.25;;
46036;SDS011;31769;49.304;8.428;2024-02-23T14:26:13;5.25;;;1.20;;
46036;SDS011;31769;49.304;8.428;2024-02-23T14:29:13;8.38;;;3.65;;
46036;SDS011;31769;49.304;8.428;2024-02-23T14:32:15;14.25;;;7.88;;
46036;SDS011;31769;49.304;8.428;2024-02-23T14:35:18;6.65;;;1.80;;
46036;SDS011;31769;49.304;8.428;2024-02-23T14:38:19;5.88;;;0.88;;
46036;SDS011;31769;49.304;8.428;2024-02-23T14:41:20;7.30;;;2.53;;
46036;SDS011;31769;49.304;8.428;2024-02-23T14:44:21;5.43;;;1.20;;
46036;SDS011;31769;49.304;8.428;2024-02-23T14:47:22;6.35;;;1.40;;
46036;SDS011;31769;49.304;8.428;2024-02-23T14:50:23;4.38;;;1.40;;
46036;SDS011;31769;49.304;8.428;2024-02-23T14:53:24;10.00;;;4.25;;
46036;SDS011;31769;49.304;8.428;2024-02-23T14:56:24;5.97;;;1.10;;
46036;SDS011;31769;49.304;8.428;2024-02-23T14:59:25;4.70;;;2.30;;
46036;SDS011;31769;49.304;8.428;2024-02-23T15:02:25;5.72;;;1.75;;
46036;SDS011;31769;49.304;8.428;2024-02-23T15:05:26;5.80;;;4.50;;
46036;SDS011;31769;49.304;8.428;2024-02-23T15:08:27;3.42;;;1.88;;
46036;SDS011;31769;49.304;8.428;2024-02-23T15:11:28;2.25;;;0.80;;
46036;SDS011;31769;49.304;8.428;2024-02-23T15:14:29;3.28;;;0.28;;
46036;SDS011;31769;49.304;8.428;2024-02-23T15:17:30;2.75;;;0.77;;
46036;SDS011;31769;49.304;8.428;2024-02-23T15:20:30;2.00;;;0.40;;
46036;SDS011;31769;49.304;8.428;2024-02-23T15:23:32;3.05;;;0.60;;
46036;SDS011;31769;49.304;8.428;2024-02-23T15:26:32;1.60;;;0.50;;
46036;SDS011;31769;49.304;8.428;2024-02-23T15:29:35;4.28;;;0.80;;
46036;SDS011;31769;49.304;8.428;2024-02-23T15:32:39;2.45;;;0.50;;
46036;SDS011;31769;49.304;8.428;2024-02-23T15:35:40;3.13;;;0.77;;
46036;SDS011;31769;49.304;8.428;2024-02-23T15:38:40;4.40;;;0.73;;
46036;SDS011;31769;49.304;8.428;2024-02-23T15:41:41;2.75;;;0.80;;
46036;SDS011;31769;49.304;8.428;2024-02-23T15:44:42;4.53;;;1.13;;
46036;SDS011;31769;49.304;8.428;2024-02-23T15:47:42;2.22;;;0.30;;
46036;SDS011;31769;49.304;8.428;2024-02-23T15:50:43;2.72;;;0.43;;
46036;SDS011;31769;49.304;8.428;2024-02-23T15:53:44;4.47;;;0.45;;
46036;SDS011;31769;49.304;8.428;2024-02-23T15:56:45;3.05;;;0.60;;
46036;SDS011;31769;49.304;8.428;2024-02-23T15:59:46;2.00;;;0.40;;
46036;SDS011;31769;49.304;8.428;2024-02-23T16:02:47;3.38;;;0.63;;
46036;SDS011;31769;49.304;8.428;2024-02-23T16:05:47;2.97;;;0.60;;
46036;SDS011;31769;49.304;8.428;2024-02-23T16:08:48;5.00;;;0.65;;
46036;SDS011;31769;49.304;8.428;2024-02-23T16:11:49;2.33;;;1.30;;
46036;SDS011;31769;49.304;8.428;2024-02-23T16:14:50;8.60;;;2.53;;
46036;SDS011;31769;49.304;8.428;2024-02-23T16:17:51;2.83;;;1.50;;
46036;SDS011;31769;49.304;8.428;2024-02-23T16:20:52;6.30;;;2.08;;
46036;SDS011;31769;49.304;8.428;2024-02-23T16:23:53;2.50;;;0.88;;
46036;SDS011;31769;49.304;8.428;2024-02-23T16:26:54;2.72;;;0.80;;
46036;SDS011;31769;49.304;8.428;2024-02-23T16:29:54;4.47;;;0.80;;
46036;SDS011;31769;49.304;8.428;2024-02-23T16:32:55;5.78;;;1.30;;
46036;SDS011;31769;49.304;8.428;2024-02-23T16:35:56;4.22;;;0.90;;
46036;SDS011;31769;49.304;8.428;2024-02-23T16:38:59;4.88;;;0.90;;
46036;SDS011;31769;49.304;8.428;2024-02-23T16:41:59;6.57;;;1.17;;
46036;SDS011;31769;49.304;8.428;2024-02-23T16:45:00;3.28;;;0.82;;
46036;SDS011;31769;49.304;8.428;2024-02-23T16:48:01;4.15;;;1.25;;
46036;SDS011;31769;49.304;8.428;2024-02-23T16:51:06;4.70;;;0.88;;
46036;SDS011;31769;49.304;8.428;2024-02-23T16:54:07;3.30;;;1.17;;
46036;SDS011;31769;49.304;8.428;2024-02-23T16:57:07;3.38;;;1.05;;
46036;SDS011;31769;49.304;8.428;2024-02-23T17:00:09;5.18;;;0.95;;
46036;SDS011;31769;49.304;8.428;2024-02-23T17:03:10;6.82;;;3.28;;
46036;SDS011;31769;49.304;8.428;2024-02-23T17:06:11;4.97;;;1.00;;
46036;SDS011;31769;49.304;8.428;2024-02-23T17:09:11;3.30;;;1.60;;
46036;SDS011;31769;49.304;8.428;2024-02-23T17:12:15;7.05;;;3.00;;
46036;SDS011;31769;49.304;8.428;2024-02-23T17:15:18;6.50;;;2.13;;
46036;SDS011;31769;49.304;8.428;2024-02-23T17:18:19;6.82;;;2.55;;
46036;SDS011;31769;49.304;8.428;2024-02-23T17:21:23;6.22;;;1.55;;
46036;SDS011;31769;49.304;8.428;2024-02-23T17:24:23;5.47;;;2.85;;
46036;SDS011;31769;49.304;8.428;2024-02-23T17:27:24;4.40;;;1.63;;
46036;SDS011;31769;49.304;8.428;2024-02-23T17:30:25;4.63;;;1.50;;
46036;SDS011;31769;49.304;8.428;2024-02-23T17:33:26;3.53;;;0.98;;
46036;SDS011;31769;49.304;8.428;2024-02-23T17:36:26;3.85;;;1.90;;
46036;SDS011;31769;49.304;8.428;2024-02-23T17:39:29;3.65;;;1.35;;
46036;SDS011;31769;49.304;8.428;2024-02-23T17:42:29;4.40;;;1.63;;
46036;SDS011;31769;49.304;8.428;2024-02-23T17:45:30;4.38;;;2.53;;
46036;SDS011;31769;49.304;8.428;2024-02-23T17:48:31;2.83;;;1.05;;
46036;SDS011;31769;49.304;8.428;2024-02-23T17:51:31;3.70;;;1.10;;
46036;SDS011;31769;49.304;8.428;2024-02-23T17:54:32;2.67;;;1.45;;
46036;SDS011;31769;49.304;8.428;2024-02-23T17:57:33;4.90;;;1.83;;
46036;SDS011;31769;49.304;8.428;2024-02-23T18:00:33;8.05;;;3.40;;
46036;SDS011;31769;49.304;8.428;2024-02-23T18:03:34;12.15;;;4.75;;
46036;SDS011;31769;49.304;8.428;2024-02-23T18:06:36;8.85;;;2.83;;
46036;SDS011;31769;49.304;8.428;2024-02-23T18:09:36;6.78;;;2.60;;
46036;SDS011;31769;49.304;8.428;2024-02-23T18:12:37;10.48;;;5.63;;
46036;SDS011;31769;49.304;8.428;2024-02-23T18:15:38;12.07;;;6.25;;
46036;SDS011;31769;49.304;8.428;2024-02-23T18:18:39;12.07;;;6.15;;
46036;SDS011;31769;49.304;8.428;2024-02-23T18:21:40;11.60;;;5.88;;
46036;SDS011;31769;49.304;8.428;2024-02-23T18:24:40;9.75;;;5.05;;
46036;SDS011;31769;49.304;8.428;2024-02-23T18:27:41;10.93;;;4.85;;
46036;SDS011;31769;49.304;8.428;2024-02-23T18:30:42;11.55;;;5.45;;
46036;SDS011;31769;49.304;8.428;2024-02-23T18:33:43;15.02;;;6.03;;
46036;SDS011;31769;49.304;8.428;2024-02-23T18:36:43;10.32;;;4.70;;
46036;SDS011;31769;49.304;8.428;2024-02-23T18:39:44;10.95;;;5.40;;
46036;SDS011;31769;49.304;8.428;2024-02-23T18:42:45;10.25;;;5.35;;
46036;SDS011;31769;49.304;8.428;2024-02-23T18:45:45;13.85;;;6.15;;
46036;SDS011;31769;49.304;8.428;2024-02-23T18:48:46;10.93;;;4.28;;
46036;SDS011;31769;49.304;8.428;2024-02-23T18:51:47;16.05;;;7.38;;
46036;SDS011;31769;49.304;8.428;2024-02-23T18:54:49;8.63;;;3.20;;
46036;SDS011;31769;49.304;8.428;2024-02-23T18:57:49;7.85;;;4.00;;
46036;SDS011;31769;49.304;8.428;2024-02-23T19:00:50;6.47;;;2.70;;
46036;SDS011;31769;49.304;8.428;2024-02-23T19:03:52;9.05;;;3.70;;
46036;SDS011;31769;49.304;8.428;2024-02-23T19:06:52;7.90;;;3.00;;
46036;SDS011;31769;49.304;8.428;2024-02-23T19:09:53;8.93;;;3.15;;
46036;SDS011;31769;49.304;8.428;2024-02-23T19:12:54;10.27;;;4.32;;
46036;SDS011;31769;49.304;8.428;2024-02-23T19:15:54;8.60;;;3.45;;
46036;SDS011;31769;49.304;8.428;2024-02-23T19:18:55;9.95;;;3.17;;
46036;SDS011;31769;49.304;8.428;2024-02-23T19:21:56;16.05;;;5.72;;
46036;SDS011;31769;49.304;8.428;2024-02-23T19:24:57;9.02;;;4.50;;
46036;SDS011;31769;49.304;8.428;2024-02-23T19:27:57;11.60;;;4.50;;
46036;SDS011;31769;49.304;8.428;2024-02-23T19:30:59;10.77;;;3.60;;
46036;SDS011;31769;49.304;8.428;2024-02-23T19:34:03;7.18;;;3.10;;
46036;SDS011;31769;49.304;8.428;2024-02-23T19:37:06;6.35;;;3.05;;
46036;SDS011;31769;49.304;8.428;2024-02-23T19:40:07;7.63;;;3.63;;
46036;SDS011;31769;49.304;8.428;2024-02-23T19:43:10;6.18;;;3.10;;
46036;SDS011;31769;49.304;8.428;2024-02-23T19:46:10;8.00;;;2.83;;
46036;SDS011;31769;49.304;8.428;2024-02-23T19:49:11;10.98;;;2.80;;
46036;SDS011;31769;49.304;8.428;2024-02-23T19:52:12;6.82;;;2.55;;
46036;SDS011;31769;49.304;8.428;2024-02-23T19:55:14;5.43;;;2.70;;
46036;SDS011;31769;49.304;8.428;2024-02-23T19:58:14;6.53;;;3.00;;
46036;SDS011;31769;49.304;8.428;2024-02-23T20:01:15;8.98;;;2.85;;
46036;SDS011;31769;49.304;8.428;2024-02-23T20:04:16;6.40;;;2.88;;
46036;SDS011;31769;49.304;8.428;2024-02-23T20:07:19;9.85;;;3.22;;
46036;SDS011;31769;49.304;8.428;2024-02-23T20:10:21;7.40;;;3.00;;
46036;SDS011;31769;49.304;8.428;2024-02-23T20:13:22;8.98;;;2.85;;
46036;SDS011;31769;49.304;8.428;2024-02-23T20:16:24;11.55;;;4.10;;
46036;SDS011;31769;49.304;8.428;2024-02-23T20:19:24;9.80;;;3.30;;
46036;SDS011;31769;49.304;8.428;2024-02-23T20:22:25;8.77;;;4.05;;
46036;SDS011;31769;49.304;8.428;2024-02-23T20:25:25;9.73;;;4.78;;
46036;SDS011;31769;49.304;8.428;2024-02-23T20:28:26;9.65;;;4.50;;
46036;SDS011;31769;49.304;8.428;2024-02-23T20:31:27;9.35;;;3.92;;
46036;SDS011;31769;49.304;8.428;2024-02-23T20:34:27;8.93;;;3.92;;
46036;SDS011;31769;49.304;8.428;2024-02-23T20:37:28;9.82;;;4.45;;
46036;SDS011;31769;49.304;8.428;2024-02-23T20:40:29;8.73;;;3.80;;
46036;SDS011;31769;49.304;8.428;2024-02-23T20:43:29;9.68;;;4.60;;
46036;SDS011;31769;49.304;8.428;2024-02-23T20:46:30;8.23;;;3.97;;
46036;SDS011;31769;49.304;8.428;2024-02-23T20:49:31;8.63;;;3.92;;
46036;SDS011;31769;49.304;8.428;2024-02-23T20:52:31;6.70;;;3.58;;
46036;SDS011;31769;49.304;8.428;2024-02-23T20:55:32;8.80;;;3.55;;
46036;SDS011;31769;49.304;8.428;2024-02-23T20:58:33;10.43;;;3.80;;
46036;SDS011;31769;49.304;8.428;2024-02-23T21:01:33;8.00;;;4.00;;
46036;SDS011;31769;49.304;8.428;2024-02-23T21:04:34;10.38;;;3.63;;
46036;SDS011;31769;49.304;8.428;2024-02-23T21:07:43;10.43;;;3.05;;
46036;SDS011;31769;49.304;8.428;2024-02-23T21:10:45;9.10;;;3.45;;
46036;SDS011;31769;49.304;8.428;2024-02-23T21:13:46;6.65;;;3.05;;
46036;SDS011;31769;49.304;8.428;2024-02-23T21:16:47;9.65;;;3.13;;
46036;SDS011;31769;49.304;8.428;2024-02-23T21:19:48;6.70;;;2.83;;
46036;SDS011;31769;49.304;8.428;2024-02-23T21:22:48;14.18;;;4.13;;
46036;SDS011;31769;49.304;8.428;2024-02-23T21:25:49;10.02;;;3.63;;
46036;SDS011;31769;49.304;8.428;2024-02-23T21:28:50;7.90;;;2.97;;
46036;SDS011;31769;49.304;8.428;2024-02-23T21:31:51;6.40;;;3.15;;
46036;SDS011;31769;49.304;8.428;2024-02-23T21:34:52;10.50;;;4.07;;
46036;SDS011;31769;49.304;8.428;2024-02-23T21:37:53;11.57;;;2.80;;
46036;SDS011;31769;49.304;8.428;2024-02-23T21:40:53;8.75;;;2.30;;
46036;SDS011;31769;49.304;8.428;2024-02-23T21:43:54;7.38;;;2.30;;
46036;SDS011;31769;49.304;8.428;2024-02-23T21:46:55;7.13;;;2.05;;
46036;SDS011;31769;49.304;8.428;2024-02-23T21:49:56;6.50;;;2.20;;
46036;SDS011;31769;49.304;8.428;2024-02-23T21:52:56;6.43;;;2.00;;
46036;SDS011;31769;49.304;8.428;2024-02-23T21:55:57;5.28;;;1.90;;
46036;SDS011;31769;49.304;8.428;2024-02-23T21:59:01;4.93;;;1.95;;
46036;SDS011;31769;49.304;8.428;2024-02-23T22:02:01;5.97;;;2.22;;
46036;SDS011;31769;49.304;8.428;2024-02-23T22:05:05;6.40;;;1.90;;
46036;SDS011;31769;49.304;8.428;2024-02-23T22:08:06;7.05;;;2.10;;
46036;SDS011;31769;49.304;8.428;2024-02-23T22:11:07;5.47;;;1.90;;
46036;SDS011;31769;49.304;8.428;2024-02-23T22:14:08;5.53;;;2.10;;
46036;SDS011;31769;49.304;8.428;2024-02-23T22:17:09;4.75;;;1.60;;
46036;SDS011;31769;49.304;8.428;2024-02-23T22:20:09;6.05;;;2.05;;
46036;SDS011;31769;49.304;8.428;2024-02-23T22:23:10;5.93;;;1.60;;
46036;SDS011;31769;49.304;8.428;2024-02-23T22:26:11;9.90;;;2.58;;
46036;SDS011;31769;49.304;8.428;2024-02-23T22:29:11;6.80;;;2.00;;
46036;SDS011;31769;49.304;8.428;2024-02-23T22:32:12;6.22;;;2.28;;
46036;SDS011;31769;49.304;8.428;2024-02-23T22:35:13;4.10;;;2.30;;
46036;SDS011;31769;49.304;8.428;2024-02-23T22:38:14;7.38;;;2.00;;
46036;SDS011;31769;49.304;8.428;2024-02-23T22:41:14;7.00;;;2.30;;
46036;SDS011;31769;49.304;8.428;2024-02-23T22:44:15;7.03;;;2.22;;
46036;SDS011;31769;49.304;8.428;2024-02-23T22:47:16;7.80;;;2.75;;
46036;SDS011;31769;49.304;8.428;2024-02-23T22:50:16;5.95;;;2.40;;
46036;SDS011;31769;49.304;8.428;2024-02-23T22:53:18;5.53;;;2.42;;
46036;SDS011;31769;49.304;8.428;2024-02-23T22:56:19;6.05;;;2.42;;
46036;SDS011;31769;49.304;8.428;2024-02-23T22:59:19;7.35;;;2.25;;
46036;SDS011;31769;49.304;8.428;2024-02-23T23:02:20;6.63;;;2.33;;
46036;SDS011;31769;49.304;8.428;2024-02-23T23:05:21;6.80;;;2.10;;
46036;SDS011;31769;49.304;8.428;2024-02-23T23:08:25;5.30;;;2.42;;
46036;SDS011;31769;49.304;8.428;2024-02-23T23:11:28;5.80;;;2.22;;
46036;SDS011;31769;49.304;8.428;2024-02-23T23:14:28;6.80;;;3.05;;
46036;SDS011;31769;49.304;8.428;2024-02-23T23:17:29;4.47;;;2.22;;
46036;SDS011;31769;49.304;8.428;2024-02-23T23:20:30;5.18;;;2.15;;
46036;SDS011;31769;49.304;8.428;2024-02-23T23:23:30;6.88;;;2.75;;
46036;SDS011;31769;49.304;8.428;2024-02-23T23:26:31;5.97;;;2.20;;
46036;SDS011;31769;49.304;8.428;2024-02-23T23:29:32;6.90;;;2.60;;
46036;SDS011;31769;49.304;8.428;2024-02-23T23:32:32;7.25;;;2.78;;
46036;SDS011;31769;49.304;8.428;2024-02-23T23:35:34;5.03;;;2.78;;
46036;SDS011;31769;49.304;8.428;2024-02-23T23:38:35;7.32;;;3.13;;
46036;SDS011;31769;49.304;8.428;2024-02-23T23:41:36;8.68;;;3.25;;
46036;SDS011;31769;49.304;8.428;2024-02-23T23:44:36;8.95;;;3.67;;
46036;SDS011;31769;49.304;8.428;2024-02-23T23:47:37;8.38;;;3.35;;
46036;SDS011;31769;49.304;8.428;2024-02-23T23:50:38;7.72;;;4.15;;
46036;SDS011;31769;49.304;8.428;2024-02-23T23:53:38;5.82;;;3.00;;
46036;SDS011;31769;49.304;8.428;2024-02-23T23:56:39;6.30;;;3.05;;
46036;SDS011;31769;49.304;8.428;2024-02-23T23:59:40;6.05;;;3.10;;
